createdAt,value
2022-10-18T00:01:05.460Z,92.32
2022-10-18T00:03:33.952Z,92.36
2022-10-18T00:06:02.043Z,92.65
2022-10-18T00:08:29.636Z,92.87
2022-10-18T00:10:57.924Z,93.08
2022-10-18T00:13:26.728Z,93.04
2022-10-18T00:15:57.780Z,93.17
2022-10-18T00:18:25.665Z,92.90
2022-10-18T00:21:01.479Z,93.47
2022-10-18T00:23:31.020Z,94.69
2022-10-18T00:26:03.473Z,94.09
2022-10-18T00:28:32.627Z,94.56
2022-10-18T00:31:36.586Z,94.18
2022-10-18T00:34:10.103Z,92.73
2022-10-18T00:36:37.556Z,93.27
2022-10-18T00:39:07.510Z,94.16
2022-10-18T00:41:37.977Z,93.54
2022-10-18T00:44:11.208Z,93.95
2022-10-18T00:46:45.786Z,94.08
2022-10-18T00:49:25.095Z,94.04
2022-10-18T00:52:00.353Z,95.73
2022-10-18T00:54:30.988Z,98.20
2022-10-18T00:56:58.828Z,96.40
2022-10-18T00:59:26.727Z,95.33
2022-10-18T01:01:54.759Z,94.32
2022-10-18T01:04:22.616Z,93.63
2022-10-18T01:09:45.992Z,93.77
2022-10-18T01:12:33.109Z,93.83
2022-10-18T01:15:26.471Z,93.00
2022-10-18T01:18:33.200Z,92.48
2022-10-18T01:21:43.707Z,92.60
2022-10-18T01:24:45.178Z,90.64
2022-10-18T01:27:37.763Z,92.38
2022-10-18T01:30:41.312Z,93.30
2022-10-18T01:33:46.165Z,93.37
2022-10-18T01:36:25.845Z,93.42
2022-10-18T01:38:57.539Z,93.15
2022-10-18T01:41:27.136Z,92.48
2022-10-18T01:43:59.544Z,92.52
2022-10-18T01:46:28.814Z,92.78
2022-10-18T01:48:57.364Z,92.74
2022-10-18T01:51:26.275Z,93.23
2022-10-18T01:53:54.391Z,93.16
2022-10-18T01:56:41.241Z,93.13
2022-10-18T01:59:17.665Z,92.41
2022-10-18T02:02:34.649Z,92.89
2022-10-18T02:05:14.014Z,92.05
2022-10-18T02:07:41.328Z,91.77
2022-10-18T02:10:42.542Z,91.46
2022-10-18T02:13:13.468Z,90.60
2022-10-18T02:15:45.628Z,90.05
2022-10-18T02:18:25.533Z,89.43
2022-10-18T02:20:54.845Z,89.23
2022-10-18T02:23:25.275Z,88.60
2022-10-18T02:25:53.908Z,89.01
2022-10-18T02:28:22.157Z,88.84
2022-10-18T02:31:11.184Z,89.07
2022-10-18T02:33:57.116Z,89.44
2022-10-18T02:36:52.578Z,89.78
2022-10-18T02:39:26.367Z,89.32
2022-10-18T02:41:55.039Z,89.44
2022-10-18T02:44:23.348Z,89.27
2022-10-18T02:46:51.286Z,89.99
2022-10-18T02:49:18.670Z,90.86
2022-10-18T02:51:46.301Z,90.76
2022-10-18T02:54:13.795Z,90.67
2022-10-18T02:56:41.246Z,91.06
2022-10-18T02:59:09.256Z,91.53
2022-10-18T03:01:36.733Z,90.95
2022-10-18T03:04:04.984Z,90.87
2022-10-18T03:06:33.348Z,91.04
2022-10-18T03:09:05.616Z,90.97
2022-10-18T03:11:33.313Z,91.40
2022-10-18T03:14:00.701Z,91.09
2022-10-18T03:16:28.042Z,91.14
2022-10-18T03:18:55.757Z,90.90
2022-10-18T03:21:23.125Z,91.42
2022-10-18T03:23:50.557Z,91.14
2022-10-18T03:26:18.364Z,91.10
2022-10-18T03:28:45.819Z,91.20
2022-10-18T03:31:13.284Z,91.48
2022-10-18T03:33:40.932Z,90.91
2022-10-18T03:36:08.367Z,91.13
2022-10-18T03:38:35.716Z,91.17
2022-10-18T03:41:03.493Z,91.72
2022-10-18T03:43:30.804Z,91.77
2022-10-18T03:45:58.300Z,92.04
2022-10-18T03:48:26.072Z,92.81
2022-10-18T03:50:53.433Z,92.51
2022-10-18T03:53:20.872Z,92.93
2022-10-18T03:55:56.008Z,92.62
2022-10-18T03:58:24.438Z,92.52
2022-10-18T04:00:53.541Z,91.92
2022-10-18T04:03:22.584Z,91.28
2022-10-18T04:05:50.356Z,91.53
2022-10-18T04:08:18.459Z,91.48
2022-10-18T04:10:46.547Z,90.96
2022-10-18T04:13:14.198Z,90.96
2022-10-18T04:15:41.579Z,90.82
2022-10-18T04:18:09.347Z,90.61
2022-10-18T04:20:36.750Z,90.86
2022-10-18T04:23:04.098Z,90.64
2022-10-18T04:25:31.868Z,89.88
2022-10-18T04:27:59.399Z,89.61
2022-10-18T04:30:26.801Z,89.54
2022-10-18T04:32:54.407Z,89.60
2022-10-18T04:35:24.486Z,89.21
2022-10-18T04:37:51.965Z,89.10
2022-10-18T04:40:22.795Z,88.50
2022-10-18T04:42:50.285Z,87.94
2022-10-18T04:45:17.636Z,87.62
2022-10-18T04:47:45.236Z,87.54
2022-10-18T04:50:13.080Z,87.67
2022-10-18T04:52:41.293Z,87.64
2022-10-18T04:55:09.068Z,87.80
2022-10-18T04:57:36.417Z,87.35
2022-10-18T05:00:04.983Z,87.09
2022-10-18T05:02:32.983Z,87.04
2022-10-18T05:05:00.469Z,87.07
2022-10-18T05:07:27.831Z,86.71
2022-10-18T05:09:57.588Z,86.38
2022-10-18T05:12:25.016Z,86.24
2022-10-18T05:14:52.336Z,86.08
2022-10-18T05:17:20.107Z,86.00
2022-10-18T05:19:47.537Z,85.79
2022-10-18T05:22:14.870Z,85.66
2022-10-18T05:24:42.516Z,86.08
2022-10-18T05:27:11.120Z,86.16
2022-10-18T05:29:38.613Z,86.54
2022-10-18T05:32:06.248Z,86.19
2022-10-18T05:34:33.701Z,86.17
2022-10-18T05:37:01.431Z,86.37
2022-10-18T05:39:29.724Z,86.48
2022-10-18T05:41:58.137Z,86.08
2022-10-18T05:44:25.696Z,85.77
2022-10-18T05:46:53.392Z,85.56
2022-10-18T05:49:21.295Z,85.39
2022-10-18T05:51:48.827Z,84.95
2022-10-18T05:54:19.063Z,84.98
2022-10-18T05:56:46.969Z,84.75
2022-10-18T05:59:14.425Z,84.40
2022-10-18T06:01:43.004Z,84.35
2022-10-18T06:04:10.729Z,84.23
2022-10-18T06:06:38.873Z,84.12
2022-10-18T06:09:08.343Z,84.37
2022-10-18T06:11:36.916Z,85.06
2022-10-18T06:14:05.018Z,84.75
2022-10-18T06:16:32.844Z,83.92
2022-10-18T06:19:00.922Z,83.53
2022-10-18T06:21:28.268Z,83.05
2022-10-18T06:23:58.278Z,82.96
2022-10-18T06:26:27.882Z,82.19
2022-10-18T06:28:55.413Z,82.72
2022-10-18T06:31:22.927Z,82.38
2022-10-18T06:33:50.814Z,82.75
2022-10-18T06:36:22.044Z,81.81
2022-10-18T06:38:50.338Z,81.61
2022-10-18T06:41:19.537Z,81.39
2022-10-18T06:43:51.240Z,81.48
2022-10-18T06:46:19.585Z,80.46
2022-10-18T06:48:47.722Z,79.28
2022-10-18T06:51:15.385Z,79.37
2022-10-18T06:53:53.439Z,78.84
2022-10-18T06:56:30.734Z,83.99
2022-10-18T07:01:30.892Z,77.22
2022-10-18T07:03:58.586Z,75.01
2022-10-18T07:06:26.064Z,75.62
2022-10-18T07:08:54.250Z,74.58
2022-10-18T07:11:25.146Z,74.52
2022-10-18T07:13:54.499Z,74.54
2022-10-18T07:16:22.209Z,72.73
2022-10-18T07:18:51.353Z,73.16
2022-10-18T07:21:22.244Z,73.03
2022-10-18T07:23:51.216Z,72.65
2022-10-18T07:26:23.443Z,72.21
2022-10-18T07:28:55.310Z,72.13
2022-10-18T07:31:24.149Z,71.64
2022-10-18T07:33:52.428Z,71.31
2022-10-18T07:36:22.059Z,69.68
2022-10-18T07:38:51.892Z,69.77
2022-10-18T07:41:20.408Z,68.41
2022-10-18T07:43:50.791Z,66.05
2022-10-18T07:46:22.822Z,66.33
2022-10-18T07:48:53.532Z,66.46
2022-10-18T07:51:21.359Z,64.72
2022-10-18T07:53:48.788Z,64.60
2022-10-18T07:56:21.391Z,64.12
2022-10-18T07:58:52.137Z,63.88
2022-10-18T08:01:23.016Z,62.52
2022-10-18T08:03:51.705Z,62.00
2022-10-18T08:06:21.066Z,61.75
2022-10-18T08:08:48.670Z,60.94
2022-10-18T08:11:19.167Z,60.88
2022-10-18T08:13:46.570Z,60.22
2022-10-18T08:16:20.467Z,59.54
2022-10-18T08:18:48.617Z,58.65
2022-10-18T08:21:17.605Z,58.12
2022-10-18T08:23:45.262Z,58.56
2022-10-18T08:26:15.746Z,57.91
2022-10-18T08:28:49.102Z,56.97
2022-10-18T08:31:21.922Z,56.98
2022-10-18T08:33:49.293Z,56.94
2022-10-18T08:36:19.389Z,57.10
2022-10-18T08:38:49.222Z,56.30
2022-10-18T08:41:41.676Z,56.27
2022-10-18T08:44:29.572Z,55.09
2022-10-18T08:47:05.991Z,58.51
2022-10-18T08:49:47.331Z,57.94
2022-10-18T08:55:19.980Z,53.89
2022-10-18T08:57:48.952Z,53.76
2022-10-18T09:00:30.817Z,53.72
2022-10-18T09:03:18.381Z,53.09
2022-10-18T09:05:46.355Z,52.51
2022-10-18T09:08:22.886Z,52.78
2022-10-18T09:14:01.204Z,52.29
2022-10-18T09:16:56.064Z,52.12
2022-10-18T09:19:29.573Z,51.67
2022-10-18T09:22:19.160Z,51.82
2022-10-18T09:25:15.100Z,51.75
2022-10-18T09:27:51.416Z,51.00
2022-10-18T09:30:54.807Z,51.54
2022-10-18T09:33:46.757Z,50.88
2022-10-18T09:36:20.308Z,51.75
2022-10-18T09:38:57.333Z,51.58
2022-10-18T09:41:48.629Z,50.26
2022-10-18T09:44:22.180Z,50.22
2022-10-18T09:46:55.961Z,48.48
2022-10-18T09:49:29.487Z,47.61
2022-10-18T09:51:59.676Z,47.77
2022-10-18T09:54:40.295Z,48.24
2022-10-18T09:57:39.667Z,48.02
2022-10-18T10:00:16.612Z,47.02
2022-10-18T10:02:44.376Z,46.96
2022-10-18T10:05:15.608Z,46.49
2022-10-18T10:07:48.343Z,45.31
2022-10-18T10:10:25.596Z,45.12
2022-10-18T10:13:16.812Z,44.50
2022-10-18T10:16:00.840Z,44.27
2022-10-18T10:18:34.472Z,44.33
2022-10-18T10:21:07.148Z,44.30
2022-10-18T10:23:44.513Z,43.38
2022-10-18T10:26:29.023Z,42.76
2022-10-18T10:28:56.559Z,42.37
2022-10-18T10:31:24.233Z,43.41
2022-10-18T10:34:14.657Z,42.32
2022-10-18T10:36:53.987Z,42.07
2022-10-18T10:39:24.333Z,41.52
2022-10-18T10:41:58.532Z,40.24
2022-10-18T10:44:30.397Z,40.05
2022-10-18T10:46:58.800Z,39.56
2022-10-18T10:49:42.423Z,38.19
2022-10-18T10:52:27.646Z,37.76
2022-10-18T10:55:30.855Z,37.99
2022-10-18T10:57:48.353Z,37.63
2022-10-18T11:00:39.354Z,37.38
2022-10-18T11:03:27.962Z,37.29
2022-10-18T11:05:57.936Z,35.87
2022-10-18T11:08:29.436Z,35.93
2022-10-18T11:11:20.645Z,36.51
2022-10-18T11:14:27.059Z,35.65
2022-10-18T11:16:57.161Z,34.65
2022-10-18T11:20:00.749Z,35.03
2022-10-18T11:22:34.300Z,34.55
2022-10-18T11:25:04.792Z,35.99
2022-10-18T11:27:41.065Z,35.94
2022-10-18T11:30:37.724Z,34.96
2022-10-18T11:34:07.252Z,35.88
2022-10-18T11:37:15.930Z,35.46
2022-10-18T11:40:23.656Z,35.45
2022-10-18T11:43:17.916Z,35.87
2022-10-18T11:46:12.689Z,35.72
2022-10-18T11:49:04.303Z,36.21
2022-10-18T11:52:16.177Z,36.15
2022-10-18T11:55:04.991Z,35.28
2022-10-18T11:57:46.702Z,34.79
2022-10-18T12:00:40.639Z,35.07
2022-10-18T12:03:11.132Z,35.12
2022-10-18T12:05:41.216Z,36.01
2022-10-18T12:08:14.956Z,35.43
2022-10-18T12:11:04.037Z,35.42
2022-10-18T12:13:41.110Z,34.29
2022-10-18T12:16:10.909Z,34.68
2022-10-18T12:18:54.110Z,34.57
2022-10-18T12:21:25.852Z,34.54
2022-10-18T12:23:56.505Z,34.31
2022-10-18T12:26:25.617Z,34.20
2022-10-18T12:29:17.792Z,33.56
2022-10-18T12:31:53.508Z,32.91
2022-10-18T12:34:23.821Z,33.61
2022-10-18T12:37:16.917Z,33.26
2022-10-18T12:40:12.109Z,33.23
2022-10-18T12:42:49.451Z,33.25
2022-10-18T12:45:23.955Z,33.62
2022-10-18T12:47:52.461Z,32.93
2022-10-18T12:50:30.845Z,33.84
2022-10-18T12:53:22.916Z,32.72
2022-10-18T12:55:52.078Z,32.30
2022-10-18T12:58:24.406Z,33.68
2022-10-18T13:00:53.663Z,33.92
2022-10-18T13:03:27.477Z,34.20
2022-10-18T13:06:01.776Z,33.96
2022-10-18T13:08:42.713Z,34.31
2022-10-18T13:11:10.196Z,34.08
2022-10-18T13:13:53.348Z,34.68
2022-10-18T13:16:23.406Z,35.06
2022-10-18T13:19:21.240Z,35.31
2022-10-18T13:22:33.556Z,35.53
2022-10-18T13:25:04.472Z,35.69
2022-10-18T13:27:47.835Z,36.41
2022-10-18T13:30:46.088Z,36.09
2022-10-18T13:33:35.611Z,37.13
2022-10-18T13:36:22.813Z,37.29
2022-10-18T13:38:57.939Z,37.46
2022-10-18T13:41:29.170Z,37.77
2022-10-18T13:44:11.525Z,38.06
2022-10-18T13:46:39.191Z,38.41
2022-10-18T13:49:38.324Z,38.78
2022-10-18T13:52:40.137Z,39.44
2022-10-18T13:55:22.958Z,39.89
2022-10-18T13:58:01.783Z,40.60
2022-10-18T14:00:58.783Z,39.86
2022-10-18T14:04:01.435Z,39.69
2022-10-18T14:06:38.680Z,40.31
2022-10-18T14:09:32.851Z,40.13
2022-10-18T14:12:41.698Z,39.78
2022-10-18T14:15:24.597Z,39.81
2022-10-18T14:18:12.855Z,39.85
2022-10-18T14:21:01.258Z,40.08
2022-10-18T14:23:41.813Z,40.60
2022-10-18T14:26:15.568Z,40.08
2022-10-18T14:29:00.239Z,40.27
2022-10-18T14:31:28.636Z,40.49
2022-10-18T14:33:58.778Z,40.90
2022-10-18T14:36:40.104Z,40.73
2022-10-18T14:39:19.116Z,39.97
2022-10-18T14:41:52.136Z,39.33
2022-10-18T14:44:25.315Z,39.41
2022-10-18T14:46:55.520Z,40.45
2022-10-18T14:49:23.286Z,39.99
2022-10-18T14:51:53.669Z,40.64
2022-10-18T14:54:31.859Z,40.61
2022-10-18T14:57:01.322Z,40.58
2022-10-18T14:59:33.325Z,41.00
2022-10-18T15:02:02.546Z,40.77
2022-10-18T15:04:33.247Z,41.31
2022-10-18T15:07:07.249Z,41.39
2022-10-18T15:09:36.927Z,41.50
2022-10-18T15:12:07.053Z,41.91
2022-10-18T15:14:35.564Z,42.36
2022-10-18T15:17:08.415Z,43.04
2022-10-18T15:19:42.865Z,43.39
2022-10-18T15:25:32.007Z,44.59
2022-10-18T15:28:01.387Z,46.04
2022-10-18T15:30:38.350Z,46.71
2022-10-18T15:33:10.554Z,48.31
2022-10-18T15:35:38.964Z,47.16
2022-10-18T15:38:21.425Z,47.00
2022-10-18T15:40:49.290Z,47.36
2022-10-18T15:43:22.830Z,47.07
2022-10-18T15:45:53.307Z,48.34
2022-10-18T15:48:31.519Z,48.52
2022-10-18T15:51:07.836Z,49.91
2022-10-18T15:53:42.136Z,49.75
2022-10-18T15:56:40.066Z,52.49
2022-10-18T15:59:32.129Z,50.76
2022-10-18T16:02:01.524Z,51.57
2022-10-18T16:04:32.064Z,52.03
2022-10-18T16:07:00.368Z,54.55
2022-10-18T16:09:29.222Z,55.51
2022-10-18T16:11:58.153Z,55.93
2022-10-18T16:14:26.356Z,55.76
2022-10-18T16:16:56.513Z,56.49
2022-10-18T16:19:24.313Z,58.07
2022-10-18T16:21:53.735Z,56.86
2022-10-18T16:24:21.864Z,57.10
2022-10-18T16:26:49.957Z,57.24
2022-10-18T16:29:21.755Z,57.58
2022-10-18T16:31:50.871Z,57.41
2022-10-18T16:34:18.385Z,57.83
2022-10-18T16:36:45.769Z,59.61
2022-10-18T16:39:18.421Z,61.42
2022-10-18T16:41:46.743Z,60.42
2022-10-18T16:44:16.031Z,61.53
2022-10-18T16:46:43.967Z,63.60
2022-10-18T16:51:55.278Z,62.17
2022-10-18T16:54:23.487Z,60.20
2022-10-18T16:56:51.201Z,61.43
2022-10-18T16:59:26.159Z,59.97
2022-10-18T17:01:53.999Z,61.23
2022-10-18T17:04:21.523Z,62.05
2022-10-18T17:06:49.196Z,63.91
2022-10-18T17:09:17.200Z,65.09
2022-10-18T17:11:44.585Z,65.28
2022-10-18T17:14:11.980Z,67.50
2022-10-18T17:16:52.308Z,67.68
2022-10-18T17:19:23.269Z,67.94
2022-10-18T17:21:51.015Z,68.23
2022-10-18T17:24:18.404Z,67.46
2022-10-18T17:26:45.803Z,66.75
2022-10-18T17:29:13.647Z,65.50
2022-10-18T17:31:41.180Z,64.67
2022-10-18T17:34:08.995Z,67.52
2022-10-18T17:36:36.684Z,68.08
2022-10-18T17:39:04.693Z,69.23
2022-10-18T17:41:32.141Z,68.49
2022-10-18T17:44:02.934Z,68.75
2022-10-18T17:46:30.912Z,68.17
2022-10-18T17:48:58.765Z,70.21
2022-10-18T17:51:26.566Z,72.07
2022-10-18T17:53:54.225Z,72.38
2022-10-18T17:56:21.693Z,72.33
2022-10-18T17:58:52.894Z,73.00
2022-10-18T18:01:23.175Z,74.05
2022-10-18T18:03:59.344Z,74.06
2022-10-18T18:06:33.922Z,74.04
2022-10-18T18:09:13.222Z,73.29
2022-10-18T18:11:43.512Z,74.10
2022-10-18T18:14:12.269Z,75.90
2022-10-18T18:16:42.432Z,76.37
2022-10-18T18:19:10.358Z,76.95
2022-10-18T18:21:39.368Z,77.65
2022-10-18T18:24:07.296Z,77.74
2022-10-18T18:26:36.028Z,77.70
2022-10-18T18:29:03.895Z,77.98
2022-10-18T18:31:37.742Z,78.74
2022-10-18T18:34:09.625Z,78.66
2022-10-18T18:36:37.156Z,78.87
2022-10-18T18:39:05.694Z,79.69
2022-10-18T18:41:33.424Z,79.83
2022-10-18T18:44:04.214Z,79.65
2022-10-18T18:46:37.255Z,79.40
2022-10-18T18:49:06.837Z,78.79
2022-10-18T18:51:37.362Z,78.61
2022-10-18T18:54:05.340Z,78.75
2022-10-18T18:56:33.194Z,79.47
2022-10-18T18:59:01.206Z,79.73
2022-10-18T19:01:36.856Z,80.03
2022-10-18T19:04:05.839Z,79.97
2022-10-18T19:06:37.734Z,79.37
2022-10-18T19:09:19.525Z,79.55
2022-10-18T19:11:49.493Z,79.05
2022-10-18T19:14:16.970Z,79.27
2022-10-18T19:16:49.867Z,78.94
2022-10-18T19:19:20.220Z,79.61
2022-10-18T19:21:51.731Z,79.74
2022-10-18T19:24:23.750Z,79.64
2022-10-18T19:26:53.618Z,80.46
2022-10-18T19:29:25.960Z,81.28
2022-10-18T19:31:57.778Z,81.59
2022-10-18T19:34:27.927Z,81.18
2022-10-18T19:36:55.824Z,82.06
2022-10-18T19:39:28.844Z,82.63
2022-10-18T19:41:58.589Z,82.70
2022-10-18T19:44:30.218Z,81.85
2022-10-18T19:46:58.671Z,81.45
2022-10-18T19:49:27.298Z,81.52
2022-10-18T19:51:55.711Z,81.84
2022-10-18T19:54:23.474Z,81.80
2022-10-18T19:56:51.474Z,82.28
2022-10-18T19:59:19.460Z,83.14
2022-10-18T20:01:47.220Z,83.68
2022-10-18T20:04:16.146Z,84.34
2022-10-18T20:06:43.817Z,84.95
2022-10-18T20:09:16.058Z,84.19
2022-10-18T20:11:47.132Z,83.37
2022-10-18T20:14:14.567Z,83.05
2022-10-18T20:16:41.927Z,83.52
2022-10-18T20:19:10.385Z,84.05
2022-10-18T20:21:39.339Z,84.62
2022-10-18T20:24:06.980Z,84.96
2022-10-18T20:26:35.873Z,85.32
2022-10-18T20:29:04.542Z,85.08
2022-10-18T20:31:35.588Z,85.14
2022-10-18T20:34:06.259Z,85.05
2022-10-18T20:36:35.099Z,85.32
2022-10-18T20:39:03.687Z,85.58
2022-10-18T20:41:34.175Z,85.65
2022-10-18T20:44:10.696Z,85.45
2022-10-18T20:46:39.361Z,85.01
2022-10-18T20:49:08.412Z,86.26
2022-10-18T20:51:35.966Z,86.15
2022-10-18T20:56:39.355Z,86.52
2022-10-18T20:59:09.899Z,86.45
2022-10-18T21:01:39.412Z,85.64
2022-10-18T21:04:09.921Z,85.72
2022-10-18T21:06:42.821Z,85.25
2022-10-18T21:09:13.251Z,84.24
2022-10-18T21:11:42.319Z,85.83
2022-10-18T21:14:12.642Z,86.32
2022-10-18T21:16:41.097Z,87.10
2022-10-18T21:19:21.293Z,86.17
2022-10-18T21:21:52.143Z,87.29
2022-10-18T21:24:20.708Z,86.77
2022-10-18T21:26:51.129Z,85.91
2022-10-18T21:29:22.254Z,85.77
2022-10-18T21:31:55.934Z,85.58
2022-10-18T21:34:23.762Z,85.58
2022-10-18T21:36:51.195Z,85.35
2022-10-18T21:39:21.707Z,85.04
2022-10-18T21:41:49.930Z,85.19
2022-10-18T21:44:18.125Z,86.05
2022-10-18T21:46:46.699Z,86.23
2022-10-18T21:49:15.566Z,86.17
2022-10-18T21:51:43.411Z,86.40
2022-10-18T21:54:15.601Z,87.10
2022-10-18T21:56:43.800Z,87.18
2022-10-18T21:59:12.578Z,86.45
2022-10-18T22:01:40.753Z,87.13
2022-10-18T22:04:18.704Z,87.50
2022-10-18T22:06:46.371Z,87.46
2022-10-18T22:09:14.040Z,87.78
2022-10-18T22:11:44.741Z,87.61
2022-10-18T22:14:12.483Z,87.94
2022-10-18T22:16:40.188Z,87.90
2022-10-18T22:19:08.249Z,87.84
2022-10-18T22:21:35.872Z,88.19
2022-10-18T22:24:07.271Z,88.37
2022-10-18T22:26:39.974Z,89.40
2022-10-18T22:29:16.015Z,89.84
2022-10-18T22:31:46.276Z,89.32
2022-10-18T22:34:17.515Z,89.53
2022-10-18T22:36:45.812Z,89.59
2022-10-18T22:39:16.730Z,88.73
2022-10-18T22:41:45.308Z,88.49
2022-10-18T22:44:14.329Z,87.79
2022-10-18T22:46:42.028Z,88.45
2022-10-18T22:49:11.490Z,88.85
2022-10-18T22:51:38.862Z,89.13
2022-10-18T22:54:06.499Z,89.43
2022-10-18T22:56:34.363Z,89.63
2022-10-18T22:59:01.956Z,89.22
2022-10-18T23:01:29.481Z,88.87
2022-10-18T23:03:59.115Z,89.04
2022-10-18T23:06:31.890Z,89.07
2022-10-18T23:09:02.244Z,89.18
2022-10-18T23:11:29.683Z,89.16
2022-10-18T23:13:57.161Z,88.99
2022-10-18T23:16:24.913Z,89.47
2022-10-18T23:18:54.831Z,90.28
2022-10-18T23:21:24.375Z,89.66
2022-10-18T23:23:53.360Z,90.16
2022-10-18T23:26:24.094Z,89.56
2022-10-18T23:28:53.291Z,88.78
2022-10-18T23:31:29.376Z,88.76
2022-10-18T23:33:59.520Z,88.36
2022-10-18T23:36:27.407Z,88.88
2022-10-18T23:38:55.411Z,88.57
2022-10-18T23:41:23.868Z,88.66
2022-10-18T23:43:51.892Z,88.64
2022-10-18T23:46:19.921Z,88.12
2022-10-18T23:48:48.148Z,88.98
2022-10-18T23:51:16.072Z,88.89
2022-10-18T23:53:43.475Z,89.20
2022-10-18T23:56:14.930Z,89.26
2022-10-18T23:58:43.559Z,89.66
